sensor_id;sensor_type;location;lat;lon;timestamp;P1;durP1;ratioP1;P2;durP2;ratioP2
11191;SDS011;5652;48.406;10.820;2023-03-23T00:01:22;6.83;;;3.90;;
11191;SDS011;5652;48.406;10.820;2023-03-23T00:03:52;6.10;;;3.03;;
11191;SDS011;5652;48.406;10.820;2023-03-23T00:06:22;5.35;;;3.10;;
11191;SDS011;5652;48.406;10.820;2023-03-23T00:08:50;10.67;;;3.77;;
11191;SDS011;5652;48.406;10.820;2023-03-23T00:11:22;5.68;;;3.28;;
11191;SDS011;5652;48.406;10.820;2023-03-23T00:13:51;6.13;;;3.37;;
11191;SDS011;5652;48.406;10.820;2023-03-23T00:16:20;4.83;;;3.03;;
11191;SDS011;5652;48.406;10.820;2023-03-23T00:18:55;5.97;;;3.10;;
11191;SDS011;5652;48.406;10.820;2023-03-23T00:21:23;4.13;;;3.00;;
11191;SDS011;5652;48.406;10.820;2023-03-23T00:23:58;6.30;;;3.42;;
11191;SDS011;5652;48.406;10.820;2023-03-23T00:26:25;7.60;;;3.60;;
11191;SDS011;5652;48.406;10.820;2023-03-23T00:28:53;5.00;;;3.25;;
11191;SDS011;5652;48.406;10.820;2023-03-23T00:31:22;6.55;;;3.10;;
11191;SDS011;5652;48.406;10.820;2023-03-23T00:33:49;6.80;;;3.75;;
11191;SDS011;5652;48.406;10.820;2023-03-23T00:36:16;4.83;;;2.93;;
11191;SDS011;5652;48.406;10.820;2023-03-23T00:38:45;6.75;;;3.63;;
11191;SDS011;5652;48.406;10.820;2023-03-23T00:41:13;6.75;;;3.15;;
11191;SDS011;5652;48.406;10.820;2023-03-23T00:43:40;4.18;;;3.15;;
11191;SDS011;5652;48.406;10.820;2023-03-23T00:46:07;4.00;;;3.03;;
11191;SDS011;5652;48.406;10.820;2023-03-23T00:48:36;4.35;;;3.00;;
11191;SDS011;5652;48.406;10.820;2023-03-23T00:51:09;4.88;;;2.97;;
11191;SDS011;5652;48.406;10.820;2023-03-23T00:53:37;5.40;;;3.17;;
11191;SDS011;5652;48.406;10.820;2023-03-23T00:56:04;7.03;;;3.00;;
11191;SDS011;5652;48.406;10.820;2023-03-23T00:58:32;4.72;;;3.10;;
11191;SDS011;5652;48.406;10.820;2023-03-23T01:00:59;4.07;;;3.20;;
11191;SDS011;5652;48.406;10.820;2023-03-23T01:03:26;4.32;;;3.30;;
11191;SDS011;5652;48.406;10.820;2023-03-23T01:05:55;4.85;;;2.97;;
11191;SDS011;5652;48.406;10.820;2023-03-23T01:08:22;5.60;;;3.08;;
11191;SDS011;5652;48.406;10.820;2023-03-23T01:10:50;5.57;;;2.97;;
11191;SDS011;5652;48.406;10.820;2023-03-23T01:13:18;3.72;;;2.60;;
11191;SDS011;5652;48.406;10.820;2023-03-23T01:15:47;4.25;;;3.10;;
11191;SDS011;5652;48.406;10.820;2023-03-23T01:18:14;6.07;;;3.03;;
11191;SDS011;5652;48.406;10.820;2023-03-23T01:20:42;5.40;;;2.72;;
11191;SDS011;5652;48.406;10.820;2023-03-23T01:23:10;3.95;;;2.83;;
11191;SDS011;5652;48.406;10.820;2023-03-23T01:25:37;6.00;;;2.40;;
11191;SDS011;5652;48.406;10.820;2023-03-23T01:28:04;4.13;;;2.53;;
11191;SDS011;5652;48.406;10.820;2023-03-23T01:30:31;4.20;;;2.75;;
11191;SDS011;5652;48.406;10.820;2023-03-23T01:32:59;3.30;;;2.60;;
11191;SDS011;5652;48.406;10.820;2023-03-23T01:35:26;6.07;;;3.00;;
11191;SDS011;5652;48.406;10.820;2023-03-23T01:37:53;4.13;;;2.97;;
11191;SDS011;5652;48.406;10.820;2023-03-23T01:40:22;5.32;;;3.20;;
11191;SDS011;5652;48.406;10.820;2023-03-23T01:42:49;4.28;;;3.00;;
11191;SDS011;5652;48.406;10.820;2023-03-23T01:45:32;3.97;;;2.72;;
11191;SDS011;5652;48.406;10.820;2023-03-23T01:48:07;5.60;;;2.70;;
11191;SDS011;5652;48.406;10.820;2023-03-23T01:50:36;6.20;;;2.70;;
11191;SDS011;5652;48.406;10.820;2023-03-23T01:53:06;4.30;;;2.53;;
11191;SDS011;5652;48.406;10.820;2023-03-23T01:55:35;3.13;;;2.43;;
11191;SDS011;5652;48.406;10.820;2023-03-23T01:58:04;4.13;;;2.85;;
11191;SDS011;5652;48.406;10.820;2023-03-23T02:00:31;3.85;;;2.60;;
11191;SDS011;5652;48.406;10.820;2023-03-23T02:02:59;3.92;;;2.85;;
11191;SDS011;5652;48.406;10.820;2023-03-23T02:05:28;4.68;;;2.97;;
11191;SDS011;5652;48.406;10.820;2023-03-23T02:07:58;5.93;;;2.90;;
11191;SDS011;5652;48.406;10.820;2023-03-23T02:10:28;7.43;;;2.90;;
11191;SDS011;5652;48.406;10.820;2023-03-23T02:12:56;4.10;;;3.10;;
11191;SDS011;5652;48.406;10.820;2023-03-23T02:15:24;5.47;;;2.90;;
11191;SDS011;5652;48.406;10.820;2023-03-23T02:17:53;4.63;;;3.08;;
11191;SDS011;5652;48.406;10.820;2023-03-23T02:20:27;3.83;;;2.60;;
11191;SDS011;5652;48.406;10.820;2023-03-23T02:23:05;4.57;;;2.78;;
11191;SDS011;5652;48.406;10.820;2023-03-23T02:25:42;7.60;;;3.00;;
11191;SDS011;5652;48.406;10.820;2023-03-23T02:28:26;3.30;;;2.50;;
11191;SDS011;5652;48.406;10.820;2023-03-23T02:30:59;4.30;;;2.80;;
11191;SDS011;5652;48.406;10.820;2023-03-23T02:33:38;4.22;;;2.63;;
11191;SDS011;5652;48.406;10.820;2023-03-23T02:36:14;3.67;;;2.67;;
11191;SDS011;5652;48.406;10.820;2023-03-23T02:38:47;3.33;;;2.63;;
11191;SDS011;5652;48.406;10.820;2023-03-23T02:41:17;4.15;;;2.88;;
11191;SDS011;5652;48.406;10.820;2023-03-23T02:43:44;5.55;;;2.70;;
11191;SDS011;5652;48.406;10.820;2023-03-23T02:46:12;3.50;;;2.60;;
11191;SDS011;5652;48.406;10.820;2023-03-23T02:48:42;3.30;;;2.70;;
11191;SDS011;5652;48.406;10.820;2023-03-23T02:51:10;5.45;;;2.80;;
11191;SDS011;5652;48.406;10.820;2023-03-23T02:53:40;5.90;;;3.13;;
11191;SDS011;5652;48.406;10.820;2023-03-23T02:56:08;3.97;;;2.63;;
11191;SDS011;5652;48.406;10.820;2023-03-23T02:58:36;5.50;;;2.78;;
11191;SDS011;5652;48.406;10.820;2023-03-23T03:04:05;4.22;;;2.80;;
11191;SDS011;5652;48.406;10.820;2023-03-23T03:06:35;4.57;;;2.70;;
11191;SDS011;5652;48.406;10.820;2023-03-23T03:09:05;5.00;;;2.80;;
11191;SDS011;5652;48.406;10.820;2023-03-23T03:11:34;3.93;;;2.73;;
11191;SDS011;5652;48.406;10.820;2023-03-23T03:14:02;3.50;;;2.67;;
11191;SDS011;5652;48.406;10.820;2023-03-23T03:16:32;3.80;;;2.53;;
11191;SDS011;5652;48.406;10.820;2023-03-23T03:19:02;6.03;;;2.78;;
11191;SDS011;5652;48.406;10.820;2023-03-23T03:21:33;5.77;;;2.73;;
11191;SDS011;5652;48.406;10.820;2023-03-23T03:24:02;6.07;;;2.45;;
11191;SDS011;5652;48.406;10.820;2023-03-23T03:26:33;4.43;;;2.70;;
11191;SDS011;5652;48.406;10.820;2023-03-23T03:29:00;3.45;;;2.42;;
11191;SDS011;5652;48.406;10.820;2023-03-23T03:31:29;3.92;;;2.70;;
11191;SDS011;5652;48.406;10.820;2023-03-23T03:33:57;4.95;;;2.70;;
11191;SDS011;5652;48.406;10.820;2023-03-23T03:36:26;5.67;;;2.23;;
11191;SDS011;5652;48.406;10.820;2023-03-23T03:39:00;3.80;;;2.20;;
11191;SDS011;5652;48.406;10.820;2023-03-23T03:41:32;3.63;;;2.60;;
11191;SDS011;5652;48.406;10.820;2023-03-23T03:44:01;5.83;;;2.67;;
11191;SDS011;5652;48.406;10.820;2023-03-23T03:46:28;6.13;;;2.78;;
11191;SDS011;5652;48.406;10.820;2023-03-23T03:48:56;3.90;;;2.90;;
11191;SDS011;5652;48.406;10.820;2023-03-23T03:51:23;5.07;;;3.00;;
11191;SDS011;5652;48.406;10.820;2023-03-23T03:53:50;4.40;;;3.00;;
11191;SDS011;5652;48.406;10.820;2023-03-23T03:56:19;4.63;;;2.77;;
11191;SDS011;5652;48.406;10.820;2023-03-23T03:58:47;5.22;;;3.00;;
11191;SDS011;5652;48.406;10.820;2023-03-23T04:01:15;4.38;;;3.10;;
11191;SDS011;5652;48.406;10.820;2023-03-23T04:03:43;6.55;;;3.40;;
11191;SDS011;5652;48.406;10.820;2023-03-23T04:06:10;6.45;;;3.00;;
11191;SDS011;5652;48.406;10.820;2023-03-23T04:08:38;4.28;;;2.95;;
11191;SDS011;5652;48.406;10.820;2023-03-23T04:11:06;3.95;;;2.80;;
11191;SDS011;5652;48.406;10.820;2023-03-23T04:13:35;4.47;;;3.08;;
11191;SDS011;5652;48.406;10.820;2023-03-23T04:16:02;5.00;;;3.03;;
11191;SDS011;5652;48.406;10.820;2023-03-23T04:18:29;5.57;;;3.03;;
11191;SDS011;5652;48.406;10.820;2023-03-23T04:20:57;4.70;;;3.15;;
11191;SDS011;5652;48.406;10.820;2023-03-23T04:23:26;5.72;;;3.00;;
11191;SDS011;5652;48.406;10.820;2023-03-23T04:25:56;4.60;;;2.93;;
11191;SDS011;5652;48.406;10.820;2023-03-23T04:28:23;4.47;;;3.00;;
11191;SDS011;5652;48.406;10.820;2023-03-23T04:30:52;4.65;;;3.13;;
11191;SDS011;5652;48.406;10.820;2023-03-23T04:33:20;4.80;;;2.90;;
11191;SDS011;5652;48.406;10.820;2023-03-23T04:35:47;4.40;;;2.90;;
11191;SDS011;5652;48.406;10.820;2023-03-23T04:38:15;4.68;;;2.97;;
11191;SDS011;5652;48.406;10.820;2023-03-23T04:40:45;6.00;;;3.42;;
11191;SDS011;5652;48.406;10.820;2023-03-23T04:43:12;5.82;;;3.17;;
11191;SDS011;5652;48.406;10.820;2023-03-23T04:45:40;5.38;;;3.03;;
11191;SDS011;5652;48.406;10.820;2023-03-23T04:48:12;4.83;;;3.03;;
11191;SDS011;5652;48.406;10.820;2023-03-23T04:50:39;4.57;;;3.10;;
11191;SDS011;5652;48.406;10.820;2023-03-23T04:53:06;6.45;;;3.03;;
11191;SDS011;5652;48.406;10.820;2023-03-23T04:55:35;5.20;;;3.40;;
11191;SDS011;5652;48.406;10.820;2023-03-23T04:58:03;4.55;;;3.03;;
11191;SDS011;5652;48.406;10.820;2023-03-23T05:00:30;4.53;;;3.08;;
11191;SDS011;5652;48.406;10.820;2023-03-23T05:02:58;4.80;;;3.17;;
11191;SDS011;5652;48.406;10.820;2023-03-23T05:05:27;4.78;;;2.65;;
11191;SDS011;5652;48.406;10.820;2023-03-23T05:07:55;4.97;;;2.90;;
11191;SDS011;5652;48.406;10.820;2023-03-23T05:10:22;4.35;;;3.00;;
11191;SDS011;5652;48.406;10.820;2023-03-23T05:12:49;4.60;;;3.22;;
11191;SDS011;5652;48.406;10.820;2023-03-23T05:15:17;4.47;;;2.80;;
11191;SDS011;5652;48.406;10.820;2023-03-23T05:17:44;5.93;;;2.75;;
11191;SDS011;5652;48.406;10.820;2023-03-23T05:20:14;4.40;;;3.00;;
11191;SDS011;5652;48.406;10.820;2023-03-23T05:22:44;4.20;;;2.72;;
11191;SDS011;5652;48.406;10.820;2023-03-23T05:25:12;4.55;;;2.70;;
11191;SDS011;5652;48.406;10.820;2023-03-23T05:27:39;3.35;;;2.47;;
11191;SDS011;5652;48.406;10.820;2023-03-23T05:30:08;4.82;;;2.80;;
11191;SDS011;5652;48.406;10.820;2023-03-23T05:32:36;4.13;;;2.70;;
11191;SDS011;5652;48.406;10.820;2023-03-23T05:35:04;3.83;;;2.53;;
11191;SDS011;5652;48.406;10.820;2023-03-23T05:37:31;3.85;;;2.72;;
11191;SDS011;5652;48.406;10.820;2023-03-23T05:39:59;3.90;;;3.07;;
11191;SDS011;5652;48.406;10.820;2023-03-23T05:42:30;3.50;;;2.60;;
11191;SDS011;5652;48.406;10.820;2023-03-23T05:44:57;4.13;;;2.40;;
11191;SDS011;5652;48.406;10.820;2023-03-23T05:47:25;3.95;;;2.60;;
11191;SDS011;5652;48.406;10.820;2023-03-23T05:49:52;5.25;;;3.10;;
11191;SDS011;5652;48.406;10.820;2023-03-23T05:52:20;5.90;;;2.80;;
11191;SDS011;5652;48.406;10.820;2023-03-23T05:54:48;5.40;;;2.60;;
11191;SDS011;5652;48.406;10.820;2023-03-23T05:57:17;5.05;;;3.10;;
11191;SDS011;5652;48.406;10.820;2023-03-23T05:59:47;4.95;;;2.72;;
11191;SDS011;5652;48.406;10.820;2023-03-23T06:02:14;5.65;;;3.05;;
11191;SDS011;5652;48.406;10.820;2023-03-23T06:04:41;5.70;;;2.97;;
11191;SDS011;5652;48.406;10.820;2023-03-23T06:07:10;4.05;;;3.20;;
11191;SDS011;5652;48.406;10.820;2023-03-23T06:09:38;4.50;;;3.00;;
11191;SDS011;5652;48.406;10.820;2023-03-23T06:12:06;4.30;;;2.90;;
11191;SDS011;5652;48.406;10.820;2023-03-23T06:14:35;4.88;;;2.90;;
11191;SDS011;5652;48.406;10.820;2023-03-23T06:17:03;3.80;;;2.40;;
11191;SDS011;5652;48.406;10.820;2023-03-23T06:19:31;3.35;;;2.40;;
11191;SDS011;5652;48.406;10.820;2023-03-23T06:21:59;3.73;;;2.60;;
11191;SDS011;5652;48.406;10.820;2023-03-23T06:24:27;3.55;;;2.65;;
11191;SDS011;5652;48.406;10.820;2023-03-23T06:26:54;3.20;;;2.30;;
11191;SDS011;5652;48.406;10.820;2023-03-23T06:29:21;4.30;;;2.72;;
11191;SDS011;5652;48.406;10.820;2023-03-23T06:31:51;7.07;;;3.08;;
11191;SDS011;5652;48.406;10.820;2023-03-23T06:34:19;4.55;;;2.97;;
11191;SDS011;5652;48.406;10.820;2023-03-23T06:36:46;5.57;;;2.90;;
11191;SDS011;5652;48.406;10.820;2023-03-23T06:39:13;4.28;;;2.67;;
11191;SDS011;5652;48.406;10.820;2023-03-23T06:41:41;4.18;;;2.90;;
11191;SDS011;5652;48.406;10.820;2023-03-23T06:44:08;4.07;;;2.77;;
11191;SDS011;5652;48.406;10.820;2023-03-23T06:46:38;4.25;;;2.55;;
11191;SDS011;5652;48.406;10.820;2023-03-23T06:49:07;4.75;;;2.83;;
11191;SDS011;5652;48.406;10.820;2023-03-23T06:51:34;4.88;;;2.90;;
11191;SDS011;5652;48.406;10.820;2023-03-23T06:54:02;4.80;;;2.70;;
11191;SDS011;5652;48.406;10.820;2023-03-23T06:56:29;3.30;;;2.58;;
11191;SDS011;5652;48.406;10.820;2023-03-23T06:58:57;5.10;;;2.70;;
11191;SDS011;5652;48.406;10.820;2023-03-23T07:01:24;3.80;;;2.60;;
11191;SDS011;5652;48.406;10.820;2023-03-23T07:06:57;5.43;;;2.53;;
11191;SDS011;5652;48.406;10.820;2023-03-23T07:09:25;5.13;;;2.70;;
11191;SDS011;5652;48.406;10.820;2023-03-23T07:11:52;4.00;;;2.47;;
11191;SDS011;5652;48.406;10.820;2023-03-23T07:14:19;5.22;;;2.80;;
11191;SDS011;5652;48.406;10.820;2023-03-23T07:16:46;3.15;;;2.50;;
11191;SDS011;5652;48.406;10.820;2023-03-23T07:19:14;3.93;;;2.60;;
11191;SDS011;5652;48.406;10.820;2023-03-23T07:21:41;3.80;;;2.60;;
11191;SDS011;5652;48.406;10.820;2023-03-23T07:24:11;4.10;;;2.45;;
11191;SDS011;5652;48.406;10.820;2023-03-23T07:26:39;6.45;;;3.00;;
11191;SDS011;5652;48.406;10.820;2023-03-23T07:29:06;4.75;;;2.60;;
11191;SDS011;5652;48.406;10.820;2023-03-23T07:31:34;4.63;;;2.70;;
11191;SDS011;5652;48.406;10.820;2023-03-23T07:34:01;3.22;;;2.45;;
11191;SDS011;5652;48.406;10.820;2023-03-23T07:36:29;3.45;;;2.53;;
11191;SDS011;5652;48.406;10.820;2023-03-23T07:39:00;3.55;;;2.60;;
11191;SDS011;5652;48.406;10.820;2023-03-23T07:41:28;5.28;;;2.60;;
11191;SDS011;5652;48.406;10.820;2023-03-23T07:43:56;3.75;;;2.38;;
11191;SDS011;5652;48.406;10.820;2023-03-23T07:46:25;3.70;;;2.58;;
11191;SDS011;5652;48.406;10.820;2023-03-23T07:48:53;4.07;;;2.65;;
11191;SDS011;5652;48.406;10.820;2023-03-23T07:51:20;3.63;;;2.45;;
11191;SDS011;5652;48.406;10.820;2023-03-23T07:53:48;4.35;;;2.47;;
11191;SDS011;5652;48.406;10.820;2023-03-23T07:56:15;5.80;;;2.65;;
11191;SDS011;5652;48.406;10.820;2023-03-23T07:58:45;3.05;;;2.22;;
11191;SDS011;5652;48.406;10.820;2023-03-23T08:01:13;2.92;;;2.38;;
11191;SDS011;5652;48.406;10.820;2023-03-23T08:03:41;3.65;;;2.33;;
11191;SDS011;5652;48.406;10.820;2023-03-23T08:06:08;3.03;;;2.33;;
11191;SDS011;5652;48.406;10.820;2023-03-23T08:08:35;3.58;;;2.50;;
11191;SDS011;5652;48.406;10.820;2023-03-23T08:11:05;3.83;;;2.10;;
11191;SDS011;5652;48.406;10.820;2023-03-23T08:13:32;4.20;;;2.30;;
11191;SDS011;5652;48.406;10.820;2023-03-23T08:16:01;4.78;;;2.38;;
11191;SDS011;5652;48.406;10.820;2023-03-23T08:18:29;3.78;;;2.40;;
11191;SDS011;5652;48.406;10.820;2023-03-23T08:20:56;3.65;;;2.30;;
11191;SDS011;5652;48.406;10.820;2023-03-23T08:23:23;2.55;;;2.22;;
11191;SDS011;5652;48.406;10.820;2023-03-23T08:25:50;3.30;;;2.10;;
11191;SDS011;5652;48.406;10.820;2023-03-23T08:28:18;3.28;;;2.10;;
11191;SDS011;5652;48.406;10.820;2023-03-23T08:30:45;2.90;;;2.03;;
11191;SDS011;5652;48.406;10.820;2023-03-23T08:33:14;2.80;;;2.03;;
11191;SDS011;5652;48.406;10.820;2023-03-23T08:35:42;3.83;;;2.10;;
11191;SDS011;5652;48.406;10.820;2023-03-23T08:38:09;4.47;;;1.88;;
11191;SDS011;5652;48.406;10.820;2023-03-23T08:40:36;2.85;;;2.10;;
11191;SDS011;5652;48.406;10.820;2023-03-23T08:43:04;4.50;;;2.00;;
11191;SDS011;5652;48.406;10.820;2023-03-23T08:45:31;2.00;;;1.67;;
11191;SDS011;5652;48.406;10.820;2023-03-23T08:47:59;2.43;;;1.40;;
11191;SDS011;5652;48.406;10.820;2023-03-23T08:50:28;1.45;;;1.27;;
11191;SDS011;5652;48.406;10.820;2023-03-23T08:52:55;1.42;;;1.17;;
11191;SDS011;5652;48.406;10.820;2023-03-23T08:55:23;2.40;;;1.48;;
11191;SDS011;5652;48.406;10.820;2023-03-23T08:57:51;1.65;;;1.30;;
11191;SDS011;5652;48.406;10.820;2023-03-23T09:00:19;2.63;;;1.95;;
11191;SDS011;5652;48.406;10.820;2023-03-23T09:02:52;2.33;;;1.50;;
11191;SDS011;5652;48.406;10.820;2023-03-23T09:05:23;2.83;;;1.55;;
11191;SDS011;5652;48.406;10.820;2023-03-23T09:07:53;2.13;;;1.60;;
11191;SDS011;5652;48.406;10.820;2023-03-23T09:10:20;2.05;;;1.25;;
11191;SDS011;5652;48.406;10.820;2023-03-23T09:12:49;1.83;;;1.50;;
11191;SDS011;5652;48.406;10.820;2023-03-23T09:15:18;2.47;;;1.35;;
11191;SDS011;5652;48.406;10.820;2023-03-23T09:17:46;2.20;;;1.65;;
11191;SDS011;5652;48.406;10.820;2023-03-23T09:20:15;2.65;;;1.75;;
11191;SDS011;5652;48.406;10.820;2023-03-23T09:22:44;2.92;;;1.67;;
11191;SDS011;5652;48.406;10.820;2023-03-23T09:25:14;1.90;;;1.60;;
11191;SDS011;5652;48.406;10.820;2023-03-23T09:27:44;2.20;;;1.60;;
11191;SDS011;5652;48.406;10.820;2023-03-23T09:30:14;2.08;;;1.52;;
11191;SDS011;5652;48.406;10.820;2023-03-23T09:32:44;1.30;;;1.20;;
11191;SDS011;5652;48.406;10.820;2023-03-23T09:35:13;2.20;;;1.40;;
11191;SDS011;5652;48.406;10.820;2023-03-23T09:37:41;1.58;;;1.38;;
11191;SDS011;5652;48.406;10.820;2023-03-23T09:40:10;1.45;;;1.23;;
11191;SDS011;5652;48.406;10.820;2023-03-23T09:45:29;1.83;;;1.40;;
11191;SDS011;5652;48.406;10.820;2023-03-23T09:48:09;1.48;;;1.38;;
11191;SDS011;5652;48.406;10.820;2023-03-23T09:50:40;1.90;;;1.35;;
11191;SDS011;5652;48.406;10.820;2023-03-23T09:53:09;1.55;;;1.42;;
11191;SDS011;5652;48.406;10.820;2023-03-23T09:55:37;2.27;;;1.40;;
11191;SDS011;5652;48.406;10.820;2023-03-23T09:58:09;1.75;;;1.30;;
11191;SDS011;5652;48.406;10.820;2023-03-23T10:00:39;2.70;;;1.58;;
11191;SDS011;5652;48.406;10.820;2023-03-23T10:03:09;1.90;;;1.50;;
11191;SDS011;5652;48.406;10.820;2023-03-23T10:05:38;2.28;;;1.45;;
11191;SDS011;5652;48.406;10.820;2023-03-23T10:08:09;3.10;;;1.58;;
11191;SDS011;5652;48.406;10.820;2023-03-23T10:10:39;2.35;;;1.67;;
11191;SDS011;5652;48.406;10.820;2023-03-23T10:13:13;1.70;;;1.40;;
11191;SDS011;5652;48.406;10.820;2023-03-23T10:15:43;2.38;;;1.63;;
11191;SDS011;5652;48.406;10.820;2023-03-23T10:18:12;4.45;;;2.05;;
11191;SDS011;5652;48.406;10.820;2023-03-23T10:20:42;1.80;;;1.40;;
11191;SDS011;5652;48.406;10.820;2023-03-23T10:23:31;2.72;;;1.70;;
11191;SDS011;5652;48.406;10.820;2023-03-23T10:26:01;3.20;;;1.60;;
11191;SDS011;5652;48.406;10.820;2023-03-23T10:28:35;1.77;;;1.50;;
11191;SDS011;5652;48.406;10.820;2023-03-23T10:31:04;3.60;;;1.63;;
11191;SDS011;5652;48.406;10.820;2023-03-23T10:33:34;2.40;;;1.70;;
11191;SDS011;5652;48.406;10.820;2023-03-23T10:36:05;2.13;;;1.60;;
11191;SDS011;5652;48.406;10.820;2023-03-23T10:38:36;2.22;;;1.80;;
11191;SDS011;5652;48.406;10.820;2023-03-23T10:41:05;1.70;;;1.50;;
11191;SDS011;5652;48.406;10.820;2023-03-23T10:43:33;2.53;;;1.60;;
11191;SDS011;5652;48.406;10.820;2023-03-23T10:46:01;1.58;;;1.48;;
11191;SDS011;5652;48.406;10.820;2023-03-23T10:48:31;3.53;;;1.60;;
11191;SDS011;5652;48.406;10.820;2023-03-23T10:51:00;1.70;;;1.50;;
11191;SDS011;5652;48.406;10.820;2023-03-23T10:53:30;1.60;;;1.20;;
11191;SDS011;5652;48.406;10.820;2023-03-23T10:55:58;1.90;;;1.35;;
11191;SDS011;5652;48.406;10.820;2023-03-23T10:58:26;1.40;;;1.30;;
11191;SDS011;5652;48.406;10.820;2023-03-23T11:00:55;2.17;;;1.38;;
11191;SDS011;5652;48.406;10.820;2023-03-23T11:03:24;1.95;;;1.70;;
11191;SDS011;5652;48.406;10.820;2023-03-23T11:05:55;2.03;;;1.35;;
11191;SDS011;5652;48.406;10.820;2023-03-23T11:08:24;3.17;;;1.30;;
11191;SDS011;5652;48.406;10.820;2023-03-23T11:10:52;3.28;;;1.75;;
11191;SDS011;5652;48.406;10.820;2023-03-23T11:13:20;2.58;;;1.55;;
11191;SDS011;5652;48.406;10.820;2023-03-23T11:15:49;1.77;;;1.50;;
11191;SDS011;5652;48.406;10.820;2023-03-23T11:18:19;2.55;;;1.58;;
11191;SDS011;5652;48.406;10.820;2023-03-23T11:20:49;1.70;;;1.20;;
11191;SDS011;5652;48.406;10.820;2023-03-23T11:23:21;1.60;;;1.40;;
11191;SDS011;5652;48.406;10.820;2023-03-23T11:25:52;2.40;;;1.45;;
11191;SDS011;5652;48.406;10.820;2023-03-23T11:28:20;2.58;;;1.40;;
11191;SDS011;5652;48.406;10.820;2023-03-23T11:30:48;1.83;;;1.40;;
11191;SDS011;5652;48.406;10.820;2023-03-23T11:33:26;2.67;;;1.30;;
11191;SDS011;5652;48.406;10.820;2023-03-23T11:35:55;1.75;;;1.38;;
11191;SDS011;5652;48.406;10.820;2023-03-23T11:38:23;1.90;;;1.40;;
11191;SDS011;5652;48.406;10.820;2023-03-23T11:40:52;1.57;;;1.13;;
11191;SDS011;5652;48.406;10.820;2023-03-23T11:43:21;4.57;;;1.65;;
11191;SDS011;5652;48.406;10.820;2023-03-23T11:45:50;2.20;;;1.35;;
11191;SDS011;5652;48.406;10.820;2023-03-23T11:48:20;2.70;;;1.60;;
11191;SDS011;5652;48.406;10.820;2023-03-23T11:50:51;2.40;;;1.10;;
11191;SDS011;5652;48.406;10.820;2023-03-23T11:53:24;1.60;;;1.08;;
11191;SDS011;5652;48.406;10.820;2023-03-23T11:55:54;1.40;;;1.30;;
11191;SDS011;5652;48.406;10.820;2023-03-23T11:58:23;2.00;;;1.40;;
11191;SDS011;5652;48.406;10.820;2023-03-23T12:00:52;2.40;;;1.50;;
11191;SDS011;5652;48.406;10.820;2023-03-23T12:03:25;2.15;;;1.05;;
11191;SDS011;5652;48.406;10.820;2023-03-23T12:05:55;1.70;;;1.50;;
11191;SDS011;5652;48.406;10.820;2023-03-23T12:08:30;3.20;;;1.70;;
11191;SDS011;5652;48.406;10.820;2023-03-23T12:11:01;1.40;;;1.10;;
11191;SDS011;5652;48.406;10.820;2023-03-23T12:13:37;3.53;;;1.42;;
11191;SDS011;5652;48.406;10.820;2023-03-23T12:16:17;2.65;;;1.50;;
11191;SDS011;5652;48.406;10.820;2023-03-23T12:18:50;1.33;;;1.20;;
11191;SDS011;5652;48.406;10.820;2023-03-23T12:21:23;4.10;;;1.50;;
11191;SDS011;5652;48.406;10.820;2023-03-23T12:23:54;2.63;;;1.60;;
11191;SDS011;5652;48.406;10.820;2023-03-23T12:26:24;1.30;;;1.20;;
11191;SDS011;5652;48.406;10.820;2023-03-23T12:29:13;1.87;;;1.30;;
11191;SDS011;5652;48.406;10.820;2023-03-23T12:31:46;5.10;;;1.40;;
11191;SDS011;5652;48.406;10.820;2023-03-23T12:34:17;3.05;;;1.25;;
11191;SDS011;5652;48.406;10.820;2023-03-23T12:36:53;1.65;;;1.23;;
11191;SDS011;5652;48.406;10.820;2023-03-23T12:39:42;1.75;;;1.23;;
11191;SDS011;5652;48.406;10.820;2023-03-23T12:42:11;1.97;;;1.33;;
11191;SDS011;5652;48.406;10.820;2023-03-23T12:44:43;2.30;;;1.65;;
11191;SDS011;5652;48.406;10.820;2023-03-23T12:49:58;1.40;;;1.30;;
11191;SDS011;5652;48.406;10.820;2023-03-23T12:52:28;3.67;;;1.40;;
11191;SDS011;5652;48.406;10.820;2023-03-23T12:54:58;4.07;;;1.30;;
11191;SDS011;5652;48.406;10.820;2023-03-23T12:57:29;2.65;;;1.50;;
11191;SDS011;5652;48.406;10.820;2023-03-23T12:59:59;1.83;;;1.40;;
11191;SDS011;5652;48.406;10.820;2023-03-23T13:02:31;2.85;;;1.30;;
11191;SDS011;5652;48.406;10.820;2023-03-23T13:05:00;1.07;;;0.97;;
11191;SDS011;5652;48.406;10.820;2023-03-23T13:07:32;1.27;;;1.15;;
11191;SDS011;5652;48.406;10.820;2023-03-23T13:10:02;1.90;;;1.20;;
11191;SDS011;5652;48.406;10.820;2023-03-23T13:12:30;1.15;;;0.95;;
11191;SDS011;5652;48.406;10.820;2023-03-23T13:15:02;4.28;;;1.40;;
11191;SDS011;5652;48.406;10.820;2023-03-23T13:17:35;2.40;;;1.40;;
11191;SDS011;5652;48.406;10.820;2023-03-23T13:20:13;5.70;;;1.30;;
11191;SDS011;5652;48.406;10.820;2023-03-23T13:22:47;2.08;;;1.20;;
11191;SDS011;5652;48.406;10.820;2023-03-23T13:25:18;2.10;;;1.40;;
11191;SDS011;5652;48.406;10.820;2023-03-23T13:27:55;2.50;;;1.30;;
11191;SDS011;5652;48.406;10.820;2023-03-23T13:30:22;1.55;;;1.30;;
11191;SDS011;5652;48.406;10.820;2023-03-23T13:32:50;2.95;;;1.40;;
11191;SDS011;5652;48.406;10.820;2023-03-23T13:35:18;1.83;;;1.40;;
11191;SDS011;5652;48.406;10.820;2023-03-23T13:37:48;2.30;;;1.50;;
11191;SDS011;5652;48.406;10.820;2023-03-23T13:40:20;1.90;;;1.42;;
11191;SDS011;5652;48.406;10.820;2023-03-23T13:42:48;2.47;;;1.30;;
11191;SDS011;5652;48.406;10.820;2023-03-23T13:45:20;2.40;;;1.43;;
11191;SDS011;5652;48.406;10.820;2023-03-23T13:47:48;2.97;;;1.50;;
11191;SDS011;5652;48.406;10.820;2023-03-23T13:50:25;2.90;;;1.73;;
11191;SDS011;5652;48.406;10.820;2023-03-23T13:52:57;2.20;;;1.65;;
11191;SDS011;5652;48.406;10.820;2023-03-23T13:55:41;2.78;;;1.50;;
11191;SDS011;5652;48.406;10.820;2023-03-23T13:58:10;1.90;;;1.48;;
11191;SDS011;5652;48.406;10.820;2023-03-23T14:00:45;2.25;;;1.50;;
11191;SDS011;5652;48.406;10.820;2023-03-23T14:03:13;1.40;;;1.10;;
11191;SDS011;5652;48.406;10.820;2023-03-23T14:05:41;10.10;;;1.30;;
11191;SDS011;5652;48.406;10.820;2023-03-23T14:08:14;1.83;;;1.23;;
11191;SDS011;5652;48.406;10.820;2023-03-23T14:10:49;1.98;;;1.25;;
11191;SDS011;5652;48.406;10.820;2023-03-23T14:13:19;2.28;;;1.50;;
11191;SDS011;5652;48.406;10.820;2023-03-23T14:15:54;1.35;;;1.10;;
11191;SDS011;5652;48.406;10.820;2023-03-23T14:18:22;5.07;;;1.87;;
11191;SDS011;5652;48.406;10.820;2023-03-23T14:20:51;2.10;;;1.40;;
11191;SDS011;5652;48.406;10.820;2023-03-23T14:23:22;2.08;;;1.48;;
11191;SDS011;5652;48.406;10.820;2023-03-23T14:25:54;1.98;;;1.50;;
11191;SDS011;5652;48.406;10.820;2023-03-23T14:28:23;2.28;;;1.50;;
11191;SDS011;5652;48.406;10.820;2023-03-23T14:30:52;1.27;;;1.00;;
11191;SDS011;5652;48.406;10.820;2023-03-23T14:33:22;2.97;;;1.60;;
11191;SDS011;5652;48.406;10.820;2023-03-23T14:35:49;3.50;;;1.50;;
11191;SDS011;5652;48.406;10.820;2023-03-23T14:38:17;1.88;;;1.50;;
11191;SDS011;5652;48.406;10.820;2023-03-23T14:40:47;1.85;;;1.38;;
11191;SDS011;5652;48.406;10.820;2023-03-23T14:43:15;3.45;;;1.70;;
11191;SDS011;5652;48.406;10.820;2023-03-23T14:45:43;2.00;;;1.40;;
11191;SDS011;5652;48.406;10.820;2023-03-23T14:48:10;3.15;;;1.55;;
11191;SDS011;5652;48.406;10.820;2023-03-23T14:50:40;1.88;;;1.50;;
11191;SDS011;5652;48.406;10.820;2023-03-23T14:53:11;3.30;;;1.90;;
11191;SDS011;5652;48.406;10.820;2023-03-23T14:55:41;2.85;;;1.67;;
11191;SDS011;5652;48.406;10.820;2023-03-23T14:58:13;3.05;;;1.70;;
11191;SDS011;5652;48.406;10.820;2023-03-23T15:00:41;5.65;;;2.20;;
11191;SDS011;5652;48.406;10.820;2023-03-23T15:03:11;4.03;;;2.10;;
11191;SDS011;5652;48.406;10.820;2023-03-23T15:05:41;1.95;;;1.55;;
11191;SDS011;5652;48.406;10.820;2023-03-23T15:08:11;2.90;;;1.60;;
11191;SDS011;5652;48.406;10.820;2023-03-23T15:10:39;2.30;;;1.40;;
11191;SDS011;5652;48.406;10.820;2023-03-23T15:13:10;2.45;;;1.60;;